Terminal Aerodrome Forecast
Issued by NWS

Home | Current Version | Previous Version | Text Only | Print | Product List | Glossary On
Versions: 1 2 3 4 5 6 7 8 9 10 11 12 13
085
FTAK31 PAJN 270520
TAFAJN
TAF
PAJN 270520Z 2706/2806 25006KT P6SM SCT050
     FM270800 VRB03KT P6SM SCT070
     FM271700 24008KT P6SM BKN070=

USA.gov is the U.S. government's official web portal to all federal, state and local government web resources and services.